Terminal Aerodrome Forecast
Issued by NWS St Louis, MO

Home | Current Version | Previous Version | Text Only | Print | Product List | Glossary On
Versions: 1 2 3 4 5 6 7 8 9 10 11 12 13 14 15 16 17 18
000
FTUS43 KLSX 142300
TAFCOU
TAF
KCOU 142323Z 1500/1524 18006KT P6SM BKN050
     FM151100 17006KT P6SM VCSH BKN050
     FM151500 21009KT 5SM -SHRA VCTS BKN040CB
     FM151900 28012KT P6SM VCSH BKN040
     FM152300 35012KT P6SM BKN015=

USA.gov is the U.S. government's official web portal to all federal, state and local government web resources and services.